Pagrindinis puslapis
METAR-TAF:

METAR-TAF

Oro uostai :

Badenas-Badenas, Vokietija

platuma: 48-46-43N, ilguma: 008-04-47E, Aukštis: 124 m

Dabartinis oras

Ataskaita buvo paskelbta 32 minutes, ne 19:50 UTC
Vėjas 7 kt iš Šiaurės/Šiaurės Rytų
Temperatūra 13°C
Drėgmė 54%
Slėgis 1023 hPa
Matomumas 10 km arba daugiau
nėra debesų žemiau 1500 m ir nėra kamuolinių lietaus debesų

METAR: EDSB 201950Z 03007KT CAVOK 13/04 Q1023

Laikas: 22:22 (20:22 UTC)

Prognozė

Ataskaita buvo paskelbta 3 valandos ir 22 minutes, ne 17:00 UTC
Prognozė galioja nuo 20 metu 18 UTC su 21 metu 18 UTC
Vėjas 12 kt iš Šiaurės/Šiaurės Rytų
Matomumas 10 km arba daugiau
nėra debesų žemiau 1500 m ir nėra kamuolinių lietaus debesų
Tapsmas
nuo 20 metu 18 UTC su 20 metu 21 UTC
Vėjas 5 kt iš Šiaurės/Šiaurės Rytų

TAF: EDSB 201700Z 2018/2118 03012KT CAVOK BECMG 2018/2021 02005KT

Orai ataskaitas ir orų prognozės (METAR, TAF).

turimą stotys yra geltonos ir raudonos taškus žemėlapyje.

Perkelti pele per norėdami pamatyti stoties vardą.

Tada spustelėkite, norėdami matyti oro stebėjimo ir prognozės.

Norėdami pakeisti žemėlapį: spustelėkite ant žalios mygtukų su juodo kryžiaus žemyn,; žalią mygtuką su brūkšneliu, jei norite nutolinti; arba žalių rodyklių gretimoms žemėlapius.


METAR-TAF: